createdAt,value
2022-11-16T00:01:02.156Z,98440.50
2022-11-16T00:03:32.161Z,98433.50
2022-11-16T00:06:02.597Z,98434.38
2022-11-16T00:08:35.264Z,98433.50
2022-11-16T00:11:09.263Z,98431.78
2022-11-16T00:13:39.242Z,98422.25
2022-11-16T00:16:10.304Z,98421.38
2022-11-16T00:18:38.643Z,98431.75
2022-11-16T00:21:07.928Z,98424.84
2022-11-16T00:23:39.187Z,98414.47
2022-11-16T00:26:10.445Z,98421.38
2022-11-16T00:28:38.830Z,98421.38
2022-11-16T00:31:08.787Z,98425.72
2022-11-16T00:33:37.759Z,98410.09
2022-11-16T00:36:11.314Z,98413.59
2022-11-16T00:38:42.052Z,98410.09
2022-11-16T00:41:11.428Z,98411.84
2022-11-16T00:43:40.080Z,98407.50
2022-11-16T00:46:09.923Z,98401.47
2022-11-16T00:48:38.621Z,98403.19
2022-11-16T00:51:07.464Z,98404.91
2022-11-16T00:53:37.091Z,98407.50
2022-11-16T00:56:08.135Z,98407.53
2022-11-16T00:58:42.929Z,98408.41
2022-11-16T01:01:14.016Z,98397.13
2022-11-16T01:03:42.772Z,98405.75
2022-11-16T01:06:13.418Z,98391.94
2022-11-16T01:08:43.361Z,98394.50
2022-11-16T01:11:33.823Z,98390.19
2022-11-16T01:14:04.434Z,98383.22
2022-11-16T01:16:33.191Z,98384.06
2022-11-16T01:19:02.894Z,98378.03
2022-11-16T01:21:31.520Z,98373.66
2022-11-16T01:24:00.072Z,98375.41
2022-11-16T01:26:30.133Z,98368.47
2022-11-16T01:28:59.929Z,98371.91
2022-11-16T01:31:32.396Z,98378.84
2022-11-16T01:34:03.020Z,98374.47
2022-11-16T01:36:31.774Z,98364.97
2022-11-16T01:39:02.636Z,98362.38
2022-11-16T01:41:39.145Z,98365.81
2022-11-16T01:44:47.137Z,98364.94
2022-11-16T01:47:20.616Z,98371.00
2022-11-16T01:49:53.278Z,98358.88
2022-11-16T01:52:31.520Z,98357.13
2022-11-16T01:55:00.563Z,98351.91
2022-11-16T01:57:40.509Z,98344.09
2022-11-16T02:00:14.804Z,98351.91
2022-11-16T02:02:51.723Z,98346.72
2022-11-16T02:05:49.622Z,98347.59
2022-11-16T02:08:53.032Z,98350.16
2022-11-16T02:11:54.102Z,98344.91
2022-11-16T02:14:41.102Z,98352.72
2022-11-16T02:17:21.250Z,98344.03
2022-11-16T02:20:39.656Z,98344.03
2022-11-16T02:23:54.402Z,98347.47
2022-11-16T02:26:48.704Z,98328.41
2022-11-16T02:29:32.513Z,98335.31
2022-11-16T02:32:05.931Z,98336.25
2022-11-16T02:34:40.489Z,98337.09
2022-11-16T02:37:12.735Z,98338.81
2022-11-16T02:39:43.659Z,98353.53
2022-11-16T02:42:17.857Z,98357.88
2022-11-16T02:44:51.135Z,98357.91
2022-11-16T02:47:26.488Z,98369.09
2022-11-16T02:50:00.863Z,98371.69
2022-11-16T02:52:30.541Z,98363.88
2022-11-16T02:54:58.924Z,98355.22
2022-11-16T02:57:39.999Z,98348.31
2022-11-16T03:00:21.480Z,98332.72
2022-11-16T03:03:03.027Z,98332.72
2022-11-16T03:05:36.894Z,98334.44
2022-11-16T03:08:16.721Z,98330.13
2022-11-16T03:11:09.202Z,98331.00
2022-11-16T03:13:39.531Z,98323.19
2022-11-16T03:16:17.031Z,98316.28
2022-11-16T03:18:49.013Z,98310.22
2022-11-16T03:21:23.361Z,98306.78
2022-11-16T03:23:52.593Z,98308.47
2022-11-16T03:26:27.932Z,98298.97
2022-11-16T03:29:01.959Z,98302.44
2022-11-16T03:31:40.407Z,98296.38
2022-11-16T03:34:13.276Z,98304.19
2022-11-16T03:36:46.046Z,98302.44
2022-11-16T03:39:21.667Z,98304.16
2022-11-16T03:41:51.999Z,98301.56
2022-11-16T03:44:22.123Z,98304.16
2022-11-16T03:46:52.002Z,98297.25
2022-11-16T03:49:23.456Z,98292.91
2022-11-16T03:51:54.510Z,98292.91
2022-11-16T03:54:24.223Z,98288.56
2022-11-16T03:56:52.697Z,98294.63
2022-11-16T03:59:22.742Z,98298.09
2022-11-16T04:01:52.656Z,98301.56
2022-11-16T04:04:39.272Z,98304.19
2022-11-16T04:07:25.456Z,98311.91
2022-11-16T04:10:11.609Z,98314.53
2022-11-16T04:13:01.219Z,98315.34
2022-11-16T04:15:47.214Z,98325.75
2022-11-16T04:18:34.762Z,98320.53
2022-11-16T04:21:21.030Z,98333.47
2022-11-16T04:24:08.279Z,98330.00
2022-11-16T04:26:52.383Z,98339.53
2022-11-16T04:29:21.178Z,98330.84
2022-11-16T04:32:07.729Z,98336.03
2022-11-16T04:34:55.166Z,98336.94
2022-11-16T04:37:42.139Z,98344.72
2022-11-16T04:40:13.333Z,98347.31
2022-11-16T04:42:40.782Z,98349.03
2022-11-16T04:45:42.892Z,98349.03
2022-11-16T04:48:12.420Z,98353.38
2022-11-16T04:50:43.159Z,98351.63
2022-11-16T04:53:12.468Z,98358.63
2022-11-16T04:55:47.053Z,98357.75
2022-11-16T04:58:16.178Z,98346.50
2022-11-16T05:00:44.996Z,98354.31
2022-11-16T05:03:15.975Z,98348.25
2022-11-16T05:05:46.956Z,98340.44
2022-11-16T05:08:15.613Z,98347.38
2022-11-16T05:10:45.810Z,98353.41
2022-11-16T05:13:14.285Z,98341.28
2022-11-16T05:15:46.666Z,98346.50
2022-11-16T05:18:15.147Z,98340.41
2022-11-16T05:21:00.809Z,98341.28
2022-11-16T05:23:51.449Z,98346.44
2022-11-16T05:26:22.817Z,98345.50
2022-11-16T05:28:52.715Z,98353.31
2022-11-16T05:31:22.157Z,98351.59
2022-11-16T05:33:50.977Z,98351.59
2022-11-16T05:36:20.878Z,98350.72
2022-11-16T05:38:53.918Z,98350.69
2022-11-16T05:41:26.300Z,98360.22
2022-11-16T05:43:56.015Z,98357.63
2022-11-16T05:46:25.788Z,98359.34
2022-11-16T05:48:57.071Z,98371.44
2022-11-16T05:51:26.405Z,98378.34
2022-11-16T05:53:57.564Z,98386.97
2022-11-16T05:56:27.591Z,98391.34
2022-11-16T05:58:56.851Z,98383.53
2022-11-16T06:01:25.676Z,98393.06
2022-11-16T06:03:54.833Z,98401.66
2022-11-16T06:06:23.208Z,98401.66
2022-11-16T06:08:52.918Z,98410.22
2022-11-16T06:11:32.741Z,98413.69
2022-11-16T06:14:04.435Z,98411.06
2022-11-16T06:16:34.003Z,98406.75
2022-11-16T06:19:04.948Z,98410.19
2022-11-16T06:21:33.604Z,98418.03
2022-11-16T06:24:08.871Z,98413.69
2022-11-16T06:26:39.578Z,98422.38
2022-11-16T06:29:08.252Z,98415.41
2022-11-16T06:31:37.292Z,98413.69
2022-11-16T06:34:05.694Z,98420.59
2022-11-16T06:36:35.270Z,98418.03
2022-11-16T06:39:04.394Z,98422.34
2022-11-16T06:41:41.199Z,98419.78
2022-11-16T06:44:12.690Z,98426.69
2022-11-16T06:46:48.915Z,98426.69
2022-11-16T06:49:17.445Z,98428.41
2022-11-16T06:51:47.293Z,98430.16
2022-11-16T06:54:16.428Z,98437.94
2022-11-16T06:56:44.819Z,98432.75
2022-11-16T06:59:14.705Z,98440.53
2022-11-16T07:01:44.504Z,98433.56
2022-11-16T07:04:15.708Z,98447.41
2022-11-16T07:06:50.606Z,98443.94
2022-11-16T07:09:20.080Z,98456.91
2022-11-16T07:11:49.432Z,98452.53
2022-11-16T07:14:20.847Z,98457.72
2022-11-16T07:16:56.323Z,98458.59
2022-11-16T07:19:27.923Z,98458.59
2022-11-16T07:21:56.596Z,98460.34
2022-11-16T07:24:25.285Z,98467.28
2022-11-16T07:26:54.011Z,98467.28
2022-11-16T07:29:27.586Z,98481.16
2022-11-16T07:32:14.871Z,98485.41
2022-11-16T07:35:01.175Z,98493.16
2022-11-16T07:37:30.406Z,98492.31
2022-11-16T07:39:59.342Z,98479.25
2022-11-16T07:42:27.874Z,98488.84
2022-11-16T07:45:16.862Z,98494.00
2022-11-16T07:47:53.554Z,98503.50
2022-11-16T07:50:48.283Z,98508.66
2022-11-16T07:53:18.166Z,98520.75
2022-11-16T07:55:54.422Z,98525.94
2022-11-16T07:58:24.673Z,98522.44
2022-11-16T08:00:56.578Z,98520.69
2022-11-16T08:03:25.098Z,98525.84
2022-11-16T08:06:01.250Z,98517.16
2022-11-16T08:08:30.782Z,98530.13
2022-11-16T08:11:02.216Z,98525.81
2022-11-16T08:13:34.213Z,98531.81
2022-11-16T08:16:09.627Z,98530.94
2022-11-16T08:18:38.951Z,98542.16
2022-11-16T08:21:09.501Z,98538.69
2022-11-16T08:23:40.201Z,98542.97
2022-11-16T08:26:14.271Z,98538.69
2022-11-16T08:28:46.755Z,98536.97
2022-11-16T08:31:21.259Z,98544.72
2022-11-16T08:33:53.729Z,98549.00
2022-11-16T08:36:23.293Z,98555.97
2022-11-16T08:38:53.480Z,98559.44
2022-11-16T08:41:24.457Z,98563.75
2022-11-16T08:43:53.975Z,98565.50
2022-11-16T08:46:25.288Z,98569.84
2022-11-16T08:49:03.048Z,98575.03
2022-11-16T08:51:31.913Z,98587.16
2022-11-16T08:54:06.316Z,98589.75
2022-11-16T08:56:37.708Z,98578.50
2022-11-16T08:59:06.960Z,98587.19
2022-11-16T09:01:37.044Z,98592.38
2022-11-16T09:04:05.896Z,98599.28
2022-11-16T09:06:34.308Z,98594.09
2022-11-16T09:09:03.027Z,98593.25
2022-11-16T09:11:31.481Z,98592.38
2022-11-16T09:14:00.659Z,98604.47
2022-11-16T09:16:29.067Z,98597.56
2022-11-16T09:18:58.897Z,98605.34
2022-11-16T09:21:29.818Z,98607.94
2022-11-16T09:23:58.978Z,98612.31
2022-11-16T09:26:27.559Z,98612.31
2022-11-16T09:28:58.120Z,98620.09
2022-11-16T09:31:28.171Z,98615.75
2022-11-16T09:33:59.876Z,98616.63
2022-11-16T09:36:29.489Z,98624.41
2022-11-16T09:42:01.560Z,98619.22
2022-11-16T09:44:48.980Z,98618.34
2022-11-16T09:47:22.343Z,98624.41
2022-11-16T09:49:59.731Z,98626.13
2022-11-16T09:52:36.189Z,98615.72
2022-11-16T09:55:23.085Z,98620.91
2022-11-16T09:57:56.436Z,98625.25
2022-11-16T10:00:25.619Z,98626.13
2022-11-16T10:03:03.907Z,98627.88
2022-11-16T10:05:40.072Z,98627.00
2022-11-16T10:08:16.253Z,98627.88
2022-11-16T10:10:54.873Z,98620.97
2022-11-16T10:13:36.850Z,98627.88
2022-11-16T10:16:14.881Z,98629.59
2022-11-16T10:18:56.962Z,98620.94
2022-11-16T10:21:46.885Z,98621.81
2022-11-16T10:24:37.729Z,98624.34
2022-11-16T10:27:45.742Z,98627.84
2022-11-16T10:30:19.403Z,98614.84
2022-11-16T10:32:52.189Z,98608.81
2022-11-16T10:35:28.617Z,98613.19
2022-11-16T10:37:59.508Z,98608.91
2022-11-16T10:40:31.342Z,98607.22
2022-11-16T10:43:05.998Z,98602.91
2022-11-16T10:45:42.061Z,98596.84
2022-11-16T10:48:26.368Z,98592.53
2022-11-16T10:50:55.291Z,98590.78
2022-11-16T10:53:35.735Z,98589.94
2022-11-16T10:56:17.442Z,98581.31
2022-11-16T10:58:55.947Z,98574.41
2022-11-16T11:01:36.359Z,98581.34
2022-11-16T11:04:23.638Z,98567.50
2022-11-16T11:06:55.061Z,98568.41
2022-11-16T11:09:29.921Z,98565.88
2022-11-16T11:12:22.921Z,98574.56
2022-11-16T11:15:26.213Z,98567.69
2022-11-16T11:18:29.116Z,98567.69
2022-11-16T11:21:10.147Z,98563.41
2022-11-16T11:23:45.979Z,98571.25
2022-11-16T11:26:37.013Z,98559.16
2022-11-16T11:29:22.910Z,98565.28
2022-11-16T11:31:53.869Z,98567.88
2022-11-16T11:34:24.988Z,98564.47
2022-11-16T11:36:58.694Z,98569.66
2022-11-16T11:39:35.042Z,98553.22
2022-11-16T11:42:22.883Z,98548.00
2022-11-16T11:44:57.683Z,98550.63
2022-11-16T11:48:01.932Z,98541.13
2022-11-16T11:50:45.778Z,98540.25
2022-11-16T11:53:29.913Z,98535.06
2022-11-16T11:56:00.580Z,98535.06
2022-11-16T11:58:33.937Z,98535.94
2022-11-16T12:01:56.806Z,98528.13
2022-11-16T12:05:21.682Z,98527.22
2022-11-16T12:08:14.707Z,98533.28
2022-11-16T12:10:49.142Z,98533.31
2022-11-16T12:13:44.757Z,98529.84
2022-11-16T12:16:20.800Z,98533.34
2022-11-16T12:19:07.299Z,98521.28
2022-11-16T12:21:50.364Z,98525.66
2022-11-16T12:24:42.733Z,98525.72
2022-11-16T12:27:21.186Z,98519.69
2022-11-16T12:30:03.251Z,98517.16
2022-11-16T12:32:54.469Z,98510.25
2022-11-16T12:35:48.219Z,98514.63
2022-11-16T12:38:31.427Z,98511.19
2022-11-16T12:41:18.522Z,98521.56
2022-11-16T12:43:56.654Z,98511.19
2022-11-16T12:46:36.898Z,98511.25
2022-11-16T12:49:49.715Z,98500.84
2022-11-16T12:52:35.043Z,98504.31
2022-11-16T12:55:28.257Z,98499.19
2022-11-16T12:58:16.160Z,98494.88
2022-11-16T13:01:09.104Z,98500.94
2022-11-16T13:03:46.819Z,98497.50
2022-11-16T13:06:20.171Z,98497.53
2022-11-16T13:08:55.259Z,98487.13
2022-11-16T13:11:27.660Z,98483.69
2022-11-16T13:14:01.331Z,98475.94
2022-11-16T13:16:30.704Z,98475.03
2022-11-16T13:19:02.166Z,98468.13
2022-11-16T13:21:39.926Z,98466.41
2022-11-16T13:24:21.923Z,98465.53
2022-11-16T13:27:04.633Z,98462.94
2022-11-16T13:29:40.131Z,98461.28
2022-11-16T13:32:16.463Z,98476.03
2022-11-16T13:34:47.184Z,98458.69
2022-11-16T13:37:44.430Z,98467.38
2022-11-16T13:40:29.938Z,98459.47
2022-11-16T13:43:20.031Z,98455.13
2022-11-16T13:45:58.831Z,98459.47
2022-11-16T13:48:33.399Z,98450.81
2022-11-16T13:51:06.344Z,98451.66
2022-11-16T13:56:29.541Z,98444.75
2022-11-16T13:58:59.389Z,98449.97
2022-11-16T14:01:58.577Z,98445.69
2022-11-16T14:04:42.962Z,98434.38
2022-11-16T14:07:33.383Z,98444.78
2022-11-16T14:10:05.617Z,98443.03
2022-11-16T14:12:58.670Z,98445.69
2022-11-16T14:15:36.076Z,98438.78
2022-11-16T14:18:37.028Z,98435.31
2022-11-16T14:21:17.470Z,98423.22
2022-11-16T14:24:08.594Z,98418.88
2022-11-16T14:26:50.098Z,98418.00
2022-11-16T14:29:46.658Z,98419.72
2022-11-16T14:32:22.898Z,98420.59
2022-11-16T14:34:55.073Z,98423.22
2022-11-16T14:37:34.737Z,98424.94
2022-11-16T14:40:09.109Z,98431.88
2022-11-16T14:43:10.034Z,98428.41
2022-11-16T14:45:39.681Z,98431.00
2022-11-16T14:48:17.797Z,98431.03
2022-11-16T14:51:00.561Z,98426.69
2022-11-16T14:53:30.637Z,98426.66
2022-11-16T14:56:11.636Z,98429.19
2022-11-16T14:58:40.969Z,98429.16
2022-11-16T15:01:15.701Z,98423.94
2022-11-16T15:03:54.648Z,98433.47
2022-11-16T15:06:24.206Z,98422.22
2022-11-16T15:08:58.623Z,98428.28
2022-11-16T15:11:45.458Z,98428.28
2022-11-16T15:14:19.806Z,98427.41
2022-11-16T15:16:53.070Z,98431.75
2022-11-16T15:19:22.390Z,98420.44
2022-11-16T15:21:56.149Z,98421.28
2022-11-16T15:24:30.970Z,98416.97
2022-11-16T15:27:14.067Z,98416.97
2022-11-16T15:29:42.799Z,98421.28
2022-11-16T15:32:16.887Z,98416.94
2022-11-16T15:34:55.333Z,98411.69
2022-11-16T15:37:31.534Z,98413.41
2022-11-16T15:40:03.263Z,98409.13
2022-11-16T15:42:34.460Z,98403.03
2022-11-16T15:45:15.673Z,98403.88
2022-11-16T15:47:46.469Z,98403.00
2022-11-16T15:50:19.479Z,98397.84
2022-11-16T15:52:52.659Z,98392.63
2022-11-16T15:55:28.915Z,98383.97
2022-11-16T15:58:07.453Z,98378.75
2022-11-16T16:00:37.893Z,98381.31
2022-11-16T16:03:18.363Z,98390.81
2022-11-16T16:05:47.113Z,98382.97
2022-11-16T16:08:32.750Z,98382.94
2022-11-16T16:11:09.759Z,98379.47
2022-11-16T16:13:43.793Z,98377.72
2022-11-16T16:16:31.762Z,98366.47
2022-11-16T16:19:08.331Z,98361.22
2022-11-16T16:21:44.646Z,98367.28
2022-11-16T16:24:41.622Z,98356.88
2022-11-16T16:27:19.145Z,98349.06
2022-11-16T16:29:50.834Z,98343.88
2022-11-16T16:32:26.659Z,98340.41
2022-11-16T16:34:56.954Z,98336.03
2022-11-16T16:37:28.528Z,98339.53
2022-11-16T16:39:57.326Z,98337.78
2022-11-16T16:42:25.880Z,98336.91
2022-11-16T16:44:55.735Z,98336.91
2022-11-16T16:47:24.553Z,98330.00
2022-11-16T16:49:53.166Z,98336.06
2022-11-16T16:52:21.641Z,98338.66
2022-11-16T16:54:50.043Z,98346.44
2022-11-16T16:57:19.968Z,98353.38
2022-11-16T16:59:49.230Z,98350.78
2022-11-16T17:02:19.785Z,98343.88
2022-11-16T17:04:48.499Z,98343.00
2022-11-16T17:07:17.778Z,98343.00
2022-11-16T17:09:46.263Z,98324.81
2022-11-16T17:12:14.874Z,98328.25
2022-11-16T17:14:43.944Z,98326.53
2022-11-16T17:17:12.368Z,98310.06
2022-11-16T17:19:42.423Z,98323.06
2022-11-16T17:22:10.940Z,98321.31
2022-11-16T17:24:39.370Z,98322.16
2022-11-16T17:27:07.818Z,98318.69
2022-11-16T17:29:36.266Z,98319.56
2022-11-16T17:32:05.150Z,98313.50
2022-11-16T17:34:33.932Z,98316.97
2022-11-16T17:37:03.836Z,98304.84
2022-11-16T17:39:32.540Z,98303.94
2022-11-16T17:42:01.004Z,98309.97
2022-11-16T17:44:30.371Z,98307.34
2022-11-16T17:46:58.887Z,98306.47
2022-11-16T17:49:27.380Z,98300.38
2022-11-16T17:51:55.735Z,98299.50
2022-11-16T17:54:25.567Z,98299.50
2022-11-16T17:56:54.243Z,98299.47
2022-11-16T17:59:27.940Z,98300.34
2022-11-16T18:01:58.456Z,98301.19
2022-11-16T18:04:26.980Z,98304.66
2022-11-16T18:06:56.035Z,98302.91
2022-11-16T18:09:25.800Z,98303.78
2022-11-16T18:11:54.240Z,98301.19
2022-11-16T18:14:22.900Z,98294.25
2022-11-16T18:16:51.448Z,98283.00
2022-11-16T18:19:21.158Z,98275.19
2022-11-16T18:21:49.869Z,98282.97
2022-11-16T18:24:18.284Z,98282.97
2022-11-16T18:26:47.968Z,98284.69
2022-11-16T18:29:18.634Z,98282.06
2022-11-16T18:31:47.062Z,98263.03
2022-11-16T18:34:16.764Z,98274.25
2022-11-16T18:36:46.335Z,98259.53
2022-11-16T18:39:14.774Z,98263.84
2022-11-16T18:41:53.259Z,98261.22
2022-11-16T18:44:23.442Z,98246.50
2022-11-16T18:46:51.770Z,98257.72
2022-11-16T18:49:20.343Z,98255.97
2022-11-16T18:51:49.035Z,98257.69
2022-11-16T18:54:17.520Z,98254.19
2022-11-16T18:56:47.846Z,98241.22
2022-11-16T18:59:16.575Z,98255.03
2022-11-16T19:01:45.548Z,98249.84
2022-11-16T19:04:13.938Z,98245.53
2022-11-16T19:06:42.328Z,98253.28
2022-11-16T19:09:11.355Z,98245.44
2022-11-16T19:11:39.970Z,98254.97
2022-11-16T19:14:10.694Z,98252.38
2022-11-16T19:16:45.206Z,98254.94
2022-11-16T19:19:17.511Z,98257.50
2022-11-16T19:21:45.920Z,98254.91
2022-11-16T19:24:14.488Z,98251.41
2022-11-16T19:26:42.943Z,98238.44
2022-11-16T19:29:12.810Z,98247.09
2022-11-16T19:31:41.391Z,98230.63
2022-11-16T19:34:13.298Z,98234.97
2022-11-16T19:36:41.656Z,98241.84
2022-11-16T19:39:10.554Z,98235.75
2022-11-16T19:41:38.927Z,98228.84
2022-11-16T19:44:07.538Z,98227.06
2022-11-16T19:46:37.748Z,98225.34
2022-11-16T19:49:08.604Z,98227.94
2022-11-16T19:51:37.565Z,98221.00
2022-11-16T19:54:07.112Z,98218.38
2022-11-16T19:56:35.877Z,98210.56
2022-11-16T19:59:04.506Z,98207.97
2022-11-16T20:01:33.177Z,98208.81
2022-11-16T20:04:04.927Z,98201.84
2022-11-16T20:06:35.746Z,98203.56
2022-11-16T20:09:08.715Z,98201.84
2022-11-16T20:11:39.147Z,98193.19
2022-11-16T20:14:10.261Z,98187.16
2022-11-16T20:16:41.343Z,98185.41
2022-11-16T20:19:12.323Z,98176.75
2022-11-16T20:21:42.381Z,98183.66
2022-11-16T20:24:13.419Z,98181.91
2022-11-16T20:26:44.602Z,98175.00
2022-11-16T20:29:13.985Z,98167.25
2022-11-16T20:31:45.269Z,98164.66
2022-11-16T20:34:20.230Z,98162.91
2022-11-16T20:36:50.821Z,98163.75
2022-11-16T20:39:21.848Z,98156.84
2022-11-16T20:41:50.783Z,98149.03
2022-11-16T20:44:22.188Z,98150.75
2022-11-16T20:46:52.404Z,98142.13
2022-11-16T20:49:23.059Z,98132.66
2022-11-16T20:51:51.802Z,98136.97
2022-11-16T20:54:20.768Z,98135.25
2022-11-16T20:56:50.578Z,98132.66
2022-11-16T20:59:19.738Z,98130.94
2022-11-16T21:01:48.851Z,98129.19
2022-11-16T21:04:17.526Z,98130.06
2022-11-16T21:06:47.414Z,98128.34
2022-11-16T21:09:22.315Z,98124.88
2022-11-16T21:12:08.346Z,98124.00
2022-11-16T21:14:36.788Z,98119.66
2022-11-16T21:17:05.264Z,98114.50
2022-11-16T21:19:33.594Z,98111.91
2022-11-16T21:22:03.456Z,98115.38
2022-11-16T21:24:32.228Z,98104.13
2022-11-16T21:27:00.804Z,98101.53
2022-11-16T21:29:30.398Z,98089.44
2022-11-16T21:31:58.926Z,98079.91
2022-11-16T21:34:28.610Z,98082.50
2022-11-16T21:36:57.512Z,98080.78
2022-11-16T21:39:27.682Z,98066.97
2022-11-16T21:41:56.180Z,98066.97
2022-11-16T21:44:24.653Z,98065.25
2022-11-16T21:46:53.418Z,98059.22
2022-11-16T21:49:22.008Z,98049.72
2022-11-16T21:51:50.402Z,98041.06
2022-11-16T21:54:18.807Z,98051.44
2022-11-16T21:56:49.154Z,98043.69
2022-11-16T21:59:17.809Z,98046.25
2022-11-16T22:02:01.840Z,98041.06
2022-11-16T22:04:48.019Z,98045.38
2022-11-16T22:07:36.816Z,98034.13
2022-11-16T22:10:08.508Z,98027.25
2022-11-16T22:12:38.986Z,98021.16
2022-11-16T22:15:09.429Z,98019.47
2022-11-16T22:17:42.833Z,98013.44
2022-11-16T22:20:12.323Z,98006.50
2022-11-16T22:22:40.809Z,97993.56
2022-11-16T22:25:10.082Z,97997.03
2022-11-16T22:28:05.696Z,97990.97
2022-11-16T22:30:28.330Z,97984.09
2022-11-16T22:32:56.702Z,97978.91
2022-11-16T22:35:25.171Z,97971.97
2022-11-16T22:37:53.571Z,97964.19
2022-11-16T22:40:21.923Z,97960.72
2022-11-16T22:42:52.326Z,97936.56
2022-11-16T22:45:20.888Z,97945.19
2022-11-16T22:47:54.526Z,97947.78
2022-11-16T22:50:24.481Z,97942.59
2022-11-16T22:52:52.893Z,97933.09
2022-11-16T22:55:21.607Z,97928.75
2022-11-16T22:57:52.022Z,97924.44
2022-11-16T23:00:21.164Z,97920.13
2022-11-16T23:02:50.331Z,97914.09
2022-11-16T23:05:18.786Z,97904.56
2022-11-16T23:07:47.304Z,97906.31
2022-11-16T23:10:16.197Z,97902.84
2022-11-16T23:13:02.383Z,97902.00
2022-11-16T23:18:39.265Z,97886.44
2022-11-16T23:21:25.294Z,97881.25
2022-11-16T23:24:19.664Z,97876.00
2022-11-16T23:27:05.441Z,97874.28
2022-11-16T23:29:33.945Z,97862.19
2022-11-16T23:32:02.535Z,97857.88
2022-11-16T23:34:32.719Z,97856.16
2022-11-16T23:37:04.443Z,97853.59
2022-11-16T23:39:33.518Z,97838.91
2022-11-16T23:42:19.488Z,97841.50
2022-11-16T23:44:47.899Z,97824.22
2022-11-16T23:47:16.323Z,97814.69
2022-11-16T23:49:46.026Z,97821.63
2022-11-16T23:52:14.741Z,97810.38
2022-11-16T23:54:43.136Z,97815.59
2022-11-16T23:57:12.012Z,97810.41
2022-11-16T23:59:40.636Z,97811.28
